sensor_id;sensor_type;location;lat;lon;timestamp;pressure;altitude;pressure_sealevel;temperature;humidity
34205;BME280;20471;49.680;20.074;2023-04-26T00:00:28;96516.27;;;6.19;78.93
34205;BME280;20471;49.680;20.074;2023-04-26T00:03:12;96518.05;;;6.15;78.82
34205;BME280;20471;49.680;20.074;2023-04-26T00:05:39;96520.76;;;6.10;78.60
34205;BME280;20471;49.680;20.074;2023-04-26T00:08:06;96516.39;;;6.11;78.51
34205;BME280;20471;49.680;20.074;2023-04-26T00:10:34;96522.45;;;6.17;78.55
34205;BME280;20471;49.680;20.074;2023-04-26T00:13:00;96524.38;;;6.20;78.42
34205;BME280;20471;49.680;20.074;2023-04-26T00:15:27;96525.70;;;6.21;78.39
34205;BME280;20471;49.680;20.074;2023-04-26T00:17:53;96524.14;;;6.20;78.49
34205;BME280;20471;49.680;20.074;2023-04-26T00:20:20;96525.09;;;6.21;78.61
34205;BME280;20471;49.680;20.074;2023-04-26T00:22:47;96523.36;;;6.19;78.66
34205;BME280;20471;49.680;20.074;2023-04-26T00:25:13;96523.94;;;6.15;78.48
34205;BME280;20471;49.680;20.074;2023-04-26T00:27:40;96524.81;;;6.13;78.14
34205;BME280;20471;49.680;20.074;2023-04-26T00:30:07;96524.39;;;6.10;78.14
34205;BME280;20471;49.680;20.074;2023-04-26T00:32:35;96525.63;;;6.09;78.13
34205;BME280;20471;49.680;20.074;2023-04-26T00:35:03;96529.38;;;6.10;78.13
34205;BME280;20471;49.680;20.074;2023-04-26T00:37:30;96533.55;;;6.14;77.99
34205;BME280;20471;49.680;20.074;2023-04-26T00:39:56;96539.31;;;6.16;77.91
34205;BME280;20471;49.680;20.074;2023-04-26T00:42:23;96541.09;;;6.19;77.72
34205;BME280;20471;49.680;20.074;2023-04-26T00:44:52;96539.14;;;6.19;77.50
34205;BME280;20471;49.680;20.074;2023-04-26T00:47:23;96539.27;;;6.18;77.62
34205;BME280;20471;49.680;20.074;2023-04-26T00:49:51;96540.31;;;6.16;77.64
34205;BME280;20471;49.680;20.074;2023-04-26T00:52:18;96538.70;;;6.14;77.91
34205;BME280;20471;49.680;20.074;2023-04-26T00:54:47;96539.61;;;6.12;77.92
34205;BME280;20471;49.680;20.074;2023-04-26T00:57:14;96543.23;;;6.12;78.00
34205;BME280;20471;49.680;20.074;2023-04-26T00:59:41;96544.64;;;6.15;77.90
34205;BME280;20471;49.680;20.074;2023-04-26T01:02:08;96548.23;;;6.13;77.79
34205;BME280;20471;49.680;20.074;2023-04-26T01:04:35;96548.34;;;6.16;77.79
34205;BME280;20471;49.680;20.074;2023-04-26T01:07:02;96545.69;;;6.18;77.49
34205;BME280;20471;49.680;20.074;2023-04-26T01:09:30;96547.27;;;6.16;77.29
34205;BME280;20471;49.680;20.074;2023-04-26T01:11:57;96550.90;;;6.11;77.24
34205;BME280;20471;49.680;20.074;2023-04-26T01:14:25;96549.70;;;6.10;77.18
34205;BME280;20471;49.680;20.074;2023-04-26T01:16:52;96544.85;;;6.12;77.03
34205;BME280;20471;49.680;20.074;2023-04-26T01:19:19;96551.06;;;6.11;76.75
34205;BME280;20471;49.680;20.074;2023-04-26T01:21:46;96549.27;;;6.03;76.46
34205;BME280;20471;49.680;20.074;2023-04-26T01:24:13;96548.55;;;5.95;76.54
34205;BME280;20471;49.680;20.074;2023-04-26T01:26:40;96554.39;;;5.93;76.52
34205;BME280;20471;49.680;20.074;2023-04-26T01:29:20;96557.66;;;5.95;76.52
34205;BME280;20471;49.680;20.074;2023-04-26T01:31:47;96558.32;;;5.97;76.33
34205;BME280;20471;49.680;20.074;2023-04-26T01:34:14;96555.15;;;5.95;76.25
34205;BME280;20471;49.680;20.074;2023-04-26T01:36:41;96561.38;;;5.95;76.57
34205;BME280;20471;49.680;20.074;2023-04-26T01:39:08;96561.79;;;5.97;76.48
34205;BME280;20471;49.680;20.074;2023-04-26T01:41:35;96563.90;;;5.99;76.45
34205;BME280;20471;49.680;20.074;2023-04-26T01:44:02;96561.77;;;6.02;76.21
34205;BME280;20471;49.680;20.074;2023-04-26T01:46:28;96567.61;;;6.06;75.93
34205;BME280;20471;49.680;20.074;2023-04-26T01:48:55;96568.37;;;6.10;75.74
34205;BME280;20471;49.680;20.074;2023-04-26T01:51:22;96569.98;;;6.10;75.53
34205;BME280;20471;49.680;20.074;2023-04-26T01:53:49;96569.64;;;6.08;75.67
34205;BME280;20471;49.680;20.074;2023-04-26T01:56:15;96576.65;;;6.08;75.29
34205;BME280;20471;49.680;20.074;2023-04-26T01:58:43;96576.41;;;6.11;75.08
34205;BME280;20471;49.680;20.074;2023-04-26T02:01:09;96577.86;;;6.14;74.98
34205;BME280;20471;49.680;20.074;2023-04-26T02:03:36;96577.48;;;6.18;74.80
34205;BME280;20471;49.680;20.074;2023-04-26T02:06:03;96576.70;;;6.19;74.75
34205;BME280;20471;49.680;20.074;2023-04-26T02:08:30;96578.85;;;6.14;74.85
34205;BME280;20471;49.680;20.074;2023-04-26T02:10:56;96585.08;;;6.12;74.90
34205;BME280;20471;49.680;20.074;2023-04-26T02:13:23;96585.43;;;6.09;75.16
34205;BME280;20471;49.680;20.074;2023-04-26T02:15:50;96588.30;;;6.05;75.21
34205;BME280;20471;49.680;20.074;2023-04-26T02:18:18;96588.55;;;6.06;75.13
34205;BME280;20471;49.680;20.074;2023-04-26T02:20:46;96589.63;;;6.06;75.28
34205;BME280;20471;49.680;20.074;2023-04-26T02:23:13;96589.75;;;6.02;75.43
34205;BME280;20471;49.680;20.074;2023-04-26T02:25:40;96590.31;;;5.98;75.63
34205;BME280;20471;49.680;20.074;2023-04-26T02:28:07;96585.19;;;5.92;75.55
34205;BME280;20471;49.680;20.074;2023-04-26T02:30:34;96588.68;;;5.89;75.73
34205;BME280;20471;49.680;20.074;2023-04-26T02:33:01;96588.11;;;5.86;75.84
34205;BME280;20471;49.680;20.074;2023-04-26T02:35:28;96585.92;;;5.85;75.85
34205;BME280;20471;49.680;20.074;2023-04-26T02:37:55;96585.36;;;5.83;76.10
34205;BME280;20471;49.680;20.074;2023-04-26T02:40:21;96584.74;;;5.82;76.19
34205;BME280;20471;49.680;20.074;2023-04-26T02:42:48;96582.85;;;5.81;76.34
34205;BME280;20471;49.680;20.074;2023-04-26T02:45:15;96582.33;;;5.83;76.16
34205;BME280;20471;49.680;20.074;2023-04-26T02:47:41;96584.97;;;5.86;75.71
34205;BME280;20471;49.680;20.074;2023-04-26T02:50:08;96584.93;;;5.89;75.49
34205;BME280;20471;49.680;20.074;2023-04-26T02:52:35;96588.40;;;5.92;75.43
34205;BME280;20471;49.680;20.074;2023-04-26T02:55:02;96587.77;;;5.94;75.32
34205;BME280;20471;49.680;20.074;2023-04-26T02:57:30;96589.59;;;5.93;75.21
34205;BME280;20471;49.680;20.074;2023-04-26T02:59:57;96592.30;;;5.88;75.19
34205;BME280;20471;49.680;20.074;2023-04-26T03:02:24;96590.16;;;5.83;75.00
34205;BME280;20471;49.680;20.074;2023-04-26T03:04:51;96592.39;;;5.74;74.59
34205;BME280;20471;49.680;20.074;2023-04-26T03:07:18;96594.80;;;5.69;74.54
34205;BME280;20471;49.680;20.074;2023-04-26T03:09:44;96599.65;;;5.68;74.38
34205;BME280;20471;49.680;20.074;2023-04-26T03:12:11;96603.84;;;5.63;74.31
34205;BME280;20471;49.680;20.074;2023-04-26T03:14:38;96603.21;;;5.60;74.31
34205;BME280;20471;49.680;20.074;2023-04-26T03:17:04;96601.52;;;5.59;74.36
34205;BME280;20471;49.680;20.074;2023-04-26T03:19:31;96606.61;;;5.57;74.37
34205;BME280;20471;49.680;20.074;2023-04-26T03:21:58;96612.21;;;5.58;74.45
34205;BME280;20471;49.680;20.074;2023-04-26T03:24:25;96614.52;;;5.58;74.26
34205;BME280;20471;49.680;20.074;2023-04-26T03:26:52;96616.29;;;5.55;74.19
34205;BME280;20471;49.680;20.074;2023-04-26T03:29:18;96614.81;;;5.50;74.08
34205;BME280;20471;49.680;20.074;2023-04-26T03:31:45;96619.49;;;5.47;74.10
34205;BME280;20471;49.680;20.074;2023-04-26T03:34:12;96620.60;;;5.45;74.14
34205;BME280;20471;49.680;20.074;2023-04-26T03:36:38;96618.98;;;5.42;74.27
34205;BME280;20471;49.680;20.074;2023-04-26T03:39:05;96619.20;;;5.35;74.35
34205;BME280;20471;49.680;20.074;2023-04-26T03:41:32;96625.81;;;5.34;74.29
34205;BME280;20471;49.680;20.074;2023-04-26T03:44:00;96631.20;;;5.35;74.10
34205;BME280;20471;49.680;20.074;2023-04-26T03:46:27;96634.05;;;5.35;74.08
34205;BME280;20471;49.680;20.074;2023-04-26T03:48:54;96633.36;;;5.35;74.06
34205;BME280;20471;49.680;20.074;2023-04-26T03:51:20;96635.89;;;5.32;73.83
34205;BME280;20471;49.680;20.074;2023-04-26T03:53:47;96638.02;;;5.29;73.84
34205;BME280;20471;49.680;20.074;2023-04-26T03:56:14;96640.91;;;5.32;73.76
34205;BME280;20471;49.680;20.074;2023-04-26T03:58:42;96642.98;;;5.34;73.68
34205;BME280;20471;49.680;20.074;2023-04-26T04:01:08;96650.02;;;5.34;73.68
34205;BME280;20471;49.680;20.074;2023-04-26T04:03:35;96652.76;;;5.36;73.54
34205;BME280;20471;49.680;20.074;2023-04-26T04:06:02;96651.08;;;5.38;73.32
34205;BME280;20471;49.680;20.074;2023-04-26T04:08:28;96657.83;;;5.41;73.24
34205;BME280;20471;49.680;20.074;2023-04-26T04:10:55;96655.59;;;5.43;72.98
34205;BME280;20471;49.680;20.074;2023-04-26T04:13:22;96661.64;;;5.41;72.82
34205;BME280;20471;49.680;20.074;2023-04-26T04:15:48;96661.96;;;5.40;72.66
34205;BME280;20471;49.680;20.074;2023-04-26T04:18:15;96667.92;;;5.38;72.50
34205;BME280;20471;49.680;20.074;2023-04-26T04:20:42;96670.58;;;5.35;72.40
34205;BME280;20471;49.680;20.074;2023-04-26T04:23:08;96672.56;;;5.32;72.27
34205;BME280;20471;49.680;20.074;2023-04-26T04:25:35;96680.14;;;5.29;72.25
34205;BME280;20471;49.680;20.074;2023-04-26T04:28:04;96676.48;;;5.26;72.11
34205;BME280;20471;49.680;20.074;2023-04-26T04:30:31;96682.09;;;5.25;71.95
34205;BME280;20471;49.680;20.074;2023-04-26T04:32:57;96686.89;;;5.25;71.83
34205;BME280;20471;49.680;20.074;2023-04-26T04:35:25;96687.21;;;5.18;71.78
34205;BME280;20471;49.680;20.074;2023-04-26T04:37:54;96691.23;;;5.11;71.81
34205;BME280;20471;49.680;20.074;2023-04-26T04:40:23;96694.38;;;5.07;71.96
34205;BME280;20471;49.680;20.074;2023-04-26T04:42:51;96698.16;;;5.06;72.02
34205;BME280;20471;49.680;20.074;2023-04-26T04:45:19;96698.48;;;5.03;72.16
34205;BME280;20471;49.680;20.074;2023-04-26T04:47:46;96700.89;;;5.02;72.20
34205;BME280;20471;49.680;20.074;2023-04-26T04:50:13;96704.83;;;5.05;72.05
34205;BME280;20471;49.680;20.074;2023-04-26T04:52:39;96707.03;;;5.10;71.91
34205;BME280;20471;49.680;20.074;2023-04-26T04:55:07;96709.18;;;5.16;71.77
34205;BME280;20471;49.680;20.074;2023-04-26T04:57:34;96707.64;;;5.19;71.70
34205;BME280;20471;49.680;20.074;2023-04-26T05:00:02;96711.85;;;5.21;71.82
34205;BME280;20471;49.680;20.074;2023-04-26T05:02:35;96716.18;;;5.26;71.73
34205;BME280;20471;49.680;20.074;2023-04-26T05:05:03;96717.68;;;5.29;71.36
34205;BME280;20471;49.680;20.074;2023-04-26T05:07:30;96719.67;;;5.31;71.12
34205;BME280;20471;49.680;20.074;2023-04-26T05:09:57;96722.98;;;5.36;70.93
34205;BME280;20471;49.680;20.074;2023-04-26T05:12:25;96722.16;;;5.39;70.88
34205;BME280;20471;49.680;20.074;2023-04-26T05:14:51;96725.93;;;5.43;70.84
34205;BME280;20471;49.680;20.074;2023-04-26T05:17:18;96733.31;;;5.50;70.74
34205;BME280;20471;49.680;20.074;2023-04-26T05:19:44;96737.34;;;5.55;70.57
34205;BME280;20471;49.680;20.074;2023-04-26T05:22:12;96738.58;;;5.62;70.61
34205;BME280;20471;49.680;20.074;2023-04-26T05:24:46;96741.20;;;5.68;70.19
34205;BME280;20471;49.680;20.074;2023-04-26T05:27:13;96740.90;;;5.71;69.84
34205;BME280;20471;49.680;20.074;2023-04-26T05:29:40;96744.20;;;5.73;69.67
34205;BME280;20471;49.680;20.074;2023-04-26T05:32:06;96743.05;;;5.73;69.49
34205;BME280;20471;49.680;20.074;2023-04-26T05:34:33;96744.38;;;5.71;69.27
34205;BME280;20471;49.680;20.074;2023-04-26T05:37:00;96745.16;;;5.68;69.20
34205;BME280;20471;49.680;20.074;2023-04-26T05:39:27;96745.64;;;5.65;68.96
34205;BME280;20471;49.680;20.074;2023-04-26T05:41:53;96746.45;;;5.66;68.89
34205;BME280;20471;49.680;20.074;2023-04-26T05:44:20;96745.94;;;5.67;68.98
34205;BME280;20471;49.680;20.074;2023-04-26T05:46:47;96747.52;;;5.71;68.93
34205;BME280;20471;49.680;20.074;2023-04-26T05:49:14;96749.03;;;5.75;68.74
34205;BME280;20471;49.680;20.074;2023-04-26T05:51:41;96751.08;;;5.80;68.68
34205;BME280;20471;49.680;20.074;2023-04-26T05:54:08;96755.46;;;5.83;68.48
34205;BME280;20471;49.680;20.074;2023-04-26T05:56:34;96752.48;;;5.89;68.40
34205;BME280;20471;49.680;20.074;2023-04-26T05:59:01;96755.92;;;5.92;68.13
34205;BME280;20471;49.680;20.074;2023-04-26T06:01:28;96755.82;;;5.86;68.10
34205;BME280;20471;49.680;20.074;2023-04-26T06:03:55;96758.14;;;5.84;68.36
34205;BME280;20471;49.680;20.074;2023-04-26T06:06:21;96761.67;;;5.86;68.06
34205;BME280;20471;49.680;20.074;2023-04-26T06:08:48;96762.05;;;5.89;68.15
34205;BME280;20471;49.680;20.074;2023-04-26T06:11:15;96763.21;;;5.90;67.79
34205;BME280;20471;49.680;20.074;2023-04-26T06:13:41;96763.29;;;5.93;67.63
34205;BME280;20471;49.680;20.074;2023-04-26T06:16:08;96767.36;;;5.97;67.51
34205;BME280;20471;49.680;20.074;2023-04-26T06:18:35;96768.77;;;5.92;67.45
34205;BME280;20471;49.680;20.074;2023-04-26T06:21:02;96769.95;;;5.80;67.61
34205;BME280;20471;49.680;20.074;2023-04-26T06:23:29;96768.27;;;5.79;68.03
34205;BME280;20471;49.680;20.074;2023-04-26T06:25:55;96773.77;;;5.85;67.89
34205;BME280;20471;49.680;20.074;2023-04-26T06:28:22;96772.92;;;5.90;68.01
34205;BME280;20471;49.680;20.074;2023-04-26T06:30:49;96768.77;;;5.98;67.91
34205;BME280;20471;49.680;20.074;2023-04-26T06:33:16;96766.58;;;6.06;67.65
34205;BME280;20471;49.680;20.074;2023-04-26T06:35:42;96765.73;;;6.14;67.64
34205;BME280;20471;49.680;20.074;2023-04-26T06:38:09;96763.85;;;6.21;67.29
34205;BME280;20471;49.680;20.074;2023-04-26T06:40:37;96763.61;;;6.22;67.03
34205;BME280;20471;49.680;20.074;2023-04-26T06:43:04;96762.61;;;6.21;66.78
34205;BME280;20471;49.680;20.074;2023-04-26T06:45:31;96766.52;;;6.19;66.75
34205;BME280;20471;49.680;20.074;2023-04-26T06:47:58;96766.37;;;6.22;66.58
34205;BME280;20471;49.680;20.074;2023-04-26T06:50:26;96764.57;;;6.23;66.60
34205;BME280;20471;49.680;20.074;2023-04-26T06:52:53;96767.86;;;6.24;66.61
34205;BME280;20471;49.680;20.074;2023-04-26T06:55:20;96766.32;;;6.26;66.24
34205;BME280;20471;49.680;20.074;2023-04-26T06:57:48;96765.88;;;6.32;66.08
34205;BME280;20471;49.680;20.074;2023-04-26T07:00:15;96768.05;;;6.43;65.86
34205;BME280;20471;49.680;20.074;2023-04-26T07:02:43;96771.48;;;6.53;65.52
34205;BME280;20471;49.680;20.074;2023-04-26T07:05:10;96771.06;;;6.61;65.28
34205;BME280;20471;49.680;20.074;2023-04-26T07:07:36;96767.48;;;6.62;65.12
34205;BME280;20471;49.680;20.074;2023-04-26T07:10:03;96768.23;;;6.62;64.84
34205;BME280;20471;49.680;20.074;2023-04-26T07:12:30;96770.86;;;6.66;64.83
34205;BME280;20471;49.680;20.074;2023-04-26T07:14:57;96764.37;;;6.79;64.84
34205;BME280;20471;49.680;20.074;2023-04-26T07:17:24;96760.39;;;6.91;64.70
34205;BME280;20471;49.680;20.074;2023-04-26T07:19:51;96767.21;;;7.02;64.52
34205;BME280;20471;49.680;20.074;2023-04-26T07:22:17;96767.89;;;7.03;64.12
34205;BME280;20471;49.680;20.074;2023-04-26T07:24:44;96766.73;;;7.01;63.81
34205;BME280;20471;49.680;20.074;2023-04-26T07:27:11;96767.40;;;7.09;63.59
34205;BME280;20471;49.680;20.074;2023-04-26T07:29:37;96766.50;;;7.24;63.55
34205;BME280;20471;49.680;20.074;2023-04-26T07:32:04;96767.91;;;7.40;63.55
34205;BME280;20471;49.680;20.074;2023-04-26T07:34:31;96764.43;;;7.55;63.45
34205;BME280;20471;49.680;20.074;2023-04-26T07:36:58;96773.25;;;7.67;63.13
34205;BME280;20471;49.680;20.074;2023-04-26T07:39:25;96778.77;;;7.70;62.94
34205;BME280;20471;49.680;20.074;2023-04-26T07:41:52;96776.20;;;7.73;62.52
34205;BME280;20471;49.680;20.074;2023-04-26T07:44:19;96779.27;;;7.74;62.07
34205;BME280;20471;49.680;20.074;2023-04-26T07:46:45;96782.17;;;7.75;61.43
34205;BME280;20471;49.680;20.074;2023-04-26T07:49:12;96781.94;;;7.95;61.53
34205;BME280;20471;49.680;20.074;2023-04-26T07:51:40;96781.44;;;7.98;61.35
34205;BME280;20471;49.680;20.074;2023-04-26T07:54:09;96786.73;;;7.75;60.86
34205;BME280;20471;49.680;20.074;2023-04-26T07:56:35;96788.96;;;7.53;60.84
34205;BME280;20471;49.680;20.074;2023-04-26T07:59:02;96792.48;;;7.45;60.76
34205;BME280;20471;49.680;20.074;2023-04-26T08:01:29;96794.02;;;7.40;60.70
34205;BME280;20471;49.680;20.074;2023-04-26T08:03:56;96797.52;;;7.37;60.66
34205;BME280;20471;49.680;20.074;2023-04-26T08:06:23;96803.51;;;7.68;60.77
34205;BME280;20471;49.680;20.074;2023-04-26T08:08:50;96801.66;;;8.33;60.53
34205;BME280;20471;49.680;20.074;2023-04-26T08:11:18;96792.31;;;9.04;60.19
34205;BME280;20471;49.680;20.074;2023-04-26T08:13:45;96787.34;;;9.71;59.40
34205;BME280;20471;49.680;20.074;2023-04-26T08:16:12;96789.38;;;9.87;58.67
34205;BME280;20471;49.680;20.074;2023-04-26T08:18:38;96790.83;;;9.68;57.79
34205;BME280;20471;49.680;20.074;2023-04-26T08:21:05;96798.23;;;9.49;57.36
34205;BME280;20471;49.680;20.074;2023-04-26T08:23:35;96796.28;;;9.15;56.68
34205;BME280;20471;49.680;20.074;2023-04-26T08:26:02;96800.81;;;8.99;56.89
34205;BME280;20471;49.680;20.074;2023-04-26T08:28:29;96799.88;;;9.50;57.51
34205;BME280;20471;49.680;20.074;2023-04-26T08:30:56;96798.27;;;10.23;57.35
34205;BME280;20471;49.680;20.074;2023-04-26T08:33:23;96798.71;;;10.72;56.99
34205;BME280;20471;49.680;20.074;2023-04-26T08:35:50;96799.83;;;10.77;55.92
34205;BME280;20471;49.680;20.074;2023-04-26T08:38:17;96803.83;;;10.51;55.32
34205;BME280;20471;49.680;20.074;2023-04-26T08:40:45;96810.45;;;10.22;54.83
34205;BME280;20471;49.680;20.074;2023-04-26T08:43:13;96808.80;;;9.93;54.70
34205;BME280;20471;49.680;20.074;2023-04-26T08:45:43;96809.20;;;9.63;54.88
34205;BME280;20471;49.680;20.074;2023-04-26T08:48:11;96812.74;;;9.43;54.80
34205;BME280;20471;49.680;20.074;2023-04-26T08:50:42;96812.89;;;9.34;54.84
34205;BME280;20471;49.680;20.074;2023-04-26T08:53:13;96810.73;;;9.34;54.75
34205;BME280;20471;49.680;20.074;2023-04-26T08:55:41;96813.13;;;9.42;54.86
34205;BME280;20471;49.680;20.074;2023-04-26T08:58:13;96824.45;;;9.73;54.79
34205;BME280;20471;49.680;20.074;2023-04-26T09:00:42;96823.38;;;9.68;54.42
34205;BME280;20471;49.680;20.074;2023-04-26T09:03:10;96819.48;;;9.46;54.31
34205;BME280;20471;49.680;20.074;2023-04-26T09:05:40;96822.48;;;9.23;54.56
34205;BME280;20471;49.680;20.074;2023-04-26T09:08:13;96825.09;;;9.12;54.52
34205;BME280;20471;49.680;20.074;2023-04-26T09:10:41;96828.42;;;9.02;54.55
34205;BME280;20471;49.680;20.074;2023-04-26T09:13:08;96827.31;;;8.92;54.54
34205;BME280;20471;49.680;20.074;2023-04-26T09:15:36;96824.77;;;8.89;54.22
34205;BME280;20471;49.680;20.074;2023-04-26T09:18:20;96825.76;;;8.90;54.34
34205;BME280;20471;49.680;20.074;2023-04-26T09:21:01;96819.23;;;8.93;54.21
34205;BME280;20471;49.680;20.074;2023-04-26T09:23:28;96816.21;;;9.00;54.10
34205;BME280;20471;49.680;20.074;2023-04-26T09:26:14;96813.33;;;9.24;54.39
34205;BME280;20471;49.680;20.074;2023-04-26T09:28:40;96811.57;;;9.80;54.16
34205;BME280;20471;49.680;20.074;2023-04-26T09:31:08;96809.80;;;10.17;53.83
34205;BME280;20471;49.680;20.074;2023-04-26T09:33:35;96804.88;;;10.50;53.38
34205;BME280;20471;49.680;20.074;2023-04-26T09:36:11;96800.58;;;10.86;53.08
34205;BME280;20471;49.680;20.074;2023-04-26T09:38:41;96796.52;;;11.24;52.70
34205;BME280;20471;49.680;20.074;2023-04-26T09:41:08;96795.90;;;11.34;51.80
34205;BME280;20471;49.680;20.074;2023-04-26T09:43:36;96795.02;;;11.12;50.97
34205;BME280;20471;49.680;20.074;2023-04-26T09:46:03;96794.27;;;10.91;51.10
34205;BME280;20471;49.680;20.074;2023-04-26T09:48:32;96796.66;;;10.99;51.35
34205;BME280;20471;49.680;20.074;2023-04-26T09:53:32;96794.63;;;11.10;50.86
34205;BME280;20471;49.680;20.074;2023-04-26T09:56:20;96794.69;;;11.06;50.77
34205;BME280;20471;49.680;20.074;2023-04-26T10:01:16;96804.90;;;10.70;50.69
34205;BME280;20471;49.680;20.074;2023-04-26T10:03:45;96818.61;;;10.35;50.94
34205;BME280;20471;49.680;20.074;2023-04-26T10:06:12;96831.92;;;9.90;51.30
34205;BME280;20471;49.680;20.074;2023-04-26T10:08:39;96837.36;;;9.23;52.16
34205;BME280;20471;49.680;20.074;2023-04-26T10:11:06;96834.55;;;8.75;53.74
34205;BME280;20471;49.680;20.074;2023-04-26T10:13:34;96832.36;;;8.37;55.01
34205;BME280;20471;49.680;20.074;2023-04-26T10:16:02;96832.07;;;8.08;55.78
34205;BME280;20471;49.680;20.074;2023-04-26T10:18:30;96832.23;;;7.81;56.61
34205;BME280;20471;49.680;20.074;2023-04-26T10:21:18;96831.49;;;7.70;57.25
34205;BME280;20471;49.680;20.074;2023-04-26T10:23:47;96831.60;;;7.92;57.44
34205;BME280;20471;49.680;20.074;2023-04-26T10:26:49;96826.77;;;8.10;57.65
34205;BME280;20471;49.680;20.074;2023-04-26T10:29:19;96818.92;;;8.65;58.26
34205;BME280;20471;49.680;20.074;2023-04-26T10:34:32;96805.63;;;10.17;57.19
34205;BME280;20471;49.680;20.074;2023-04-26T10:39:38;96798.21;;;11.07;55.13
34205;BME280;20471;49.680;20.074;2023-04-26T10:42:24;96794.55;;;11.30;53.64
34205;BME280;20471;49.680;20.074;2023-04-26T10:44:54;96805.27;;;10.91;53.18
34205;BME280;20471;49.680;20.074;2023-04-26T10:47:24;96821.73;;;10.29;52.18
34205;BME280;20471;49.680;20.074;2023-04-26T10:49:51;96839.89;;;9.75;52.75
34205;BME280;20471;49.680;20.074;2023-04-26T10:52:19;96847.05;;;9.36;53.14
34205;BME280;20471;49.680;20.074;2023-04-26T10:54:49;96850.53;;;9.02;53.72
34205;BME280;20471;49.680;20.074;2023-04-26T10:57:17;96851.64;;;8.66;54.32
34205;BME280;20471;49.680;20.074;2023-04-26T11:05:52;96853.25;;;8.46;54.84
34205;BME280;20471;49.680;20.074;2023-04-26T11:08:24;96853.40;;;8.46;54.85
34205;BME280;20471;49.680;20.074;2023-04-26T11:11:12;96855.38;;;8.47;55.07
34205;BME280;20471;49.680;20.074;2023-04-26T11:13:40;96858.06;;;8.48;54.99
34205;BME280;20471;49.680;20.074;2023-04-26T11:16:09;96855.80;;;8.48;54.74
34205;BME280;20471;49.680;20.074;2023-04-26T11:18:44;96855.86;;;8.45;54.45
34205;BME280;20471;49.680;20.074;2023-04-26T11:21:12;96857.68;;;8.45;54.33
34205;BME280;20471;49.680;20.074;2023-04-26T11:23:52;96856.81;;;8.43;53.96
34205;BME280;20471;49.680;20.074;2023-04-26T11:26:18;96857.36;;;8.37;53.64
34205;BME280;20471;49.680;20.074;2023-04-26T11:28:45;96861.42;;;8.22;53.54
34205;BME280;20471;49.680;20.074;2023-04-26T11:31:14;96860.36;;;8.16;53.34
34205;BME280;20471;49.680;20.074;2023-04-26T11:33:41;96859.71;;;8.08;53.21
34205;BME280;20471;49.680;20.074;2023-04-26T11:36:08;96858.39;;;8.08;53.59
34205;BME280;20471;49.680;20.074;2023-04-26T11:38:36;96863.13;;;8.10;53.70
34205;BME280;20471;49.680;20.074;2023-04-26T11:41:03;96863.25;;;8.09;53.61
34205;BME280;20471;49.680;20.074;2023-04-26T11:43:34;96870.33;;;8.01;53.28
34205;BME280;20471;49.680;20.074;2023-04-26T11:46:01;96870.88;;;7.98;53.20
34205;BME280;20471;49.680;20.074;2023-04-26T11:48:29;96872.11;;;7.98;53.11
34205;BME280;20471;49.680;20.074;2023-04-26T11:50:59;96872.23;;;7.99;52.95
34205;BME280;20471;49.680;20.074;2023-04-26T11:53:39;96870.62;;;7.96;52.84
34205;BME280;20471;49.680;20.074;2023-04-26T11:56:16;96872.11;;;7.91;52.56
34205;BME280;20471;49.680;20.074;2023-04-26T11:58:47;96870.27;;;7.93;52.66
34205;BME280;20471;49.680;20.074;2023-04-26T12:01:25;96869.46;;;7.99;52.77
34205;BME280;20471;49.680;20.074;2023-04-26T12:03:57;96866.23;;;7.99;52.38
34205;BME280;20471;49.680;20.074;2023-04-26T12:06:29;96871.88;;;7.96;52.36
34205;BME280;20471;49.680;20.074;2023-04-26T12:09:00;96877.63;;;7.96;52.21
34205;BME280;20471;49.680;20.074;2023-04-26T12:11:27;96881.22;;;7.92;51.86
34205;BME280;20471;49.680;20.074;2023-04-26T12:13:57;96884.55;;;7.88;51.59
34205;BME280;20471;49.680;20.074;2023-04-26T12:16:23;96885.59;;;7.86;51.56
34205;BME280;20471;49.680;20.074;2023-04-26T12:18:51;96887.75;;;7.83;51.37
34205;BME280;20471;49.680;20.074;2023-04-26T12:21:19;96887.83;;;7.79;51.17
34205;BME280;20471;49.680;20.074;2023-04-26T12:23:46;96884.77;;;7.74;50.65
34205;BME280;20471;49.680;20.074;2023-04-26T12:26:14;96880.27;;;7.67;50.44
34205;BME280;20471;49.680;20.074;2023-04-26T12:28:41;96879.80;;;7.67;50.69
34205;BME280;20471;49.680;20.074;2023-04-26T12:31:08;96884.07;;;7.71;50.61
34205;BME280;20471;49.680;20.074;2023-04-26T12:33:35;96887.07;;;7.74;50.79
34205;BME280;20471;49.680;20.074;2023-04-26T12:36:09;96888.19;;;7.76;50.83
34205;BME280;20471;49.680;20.074;2023-04-26T12:38:37;96888.04;;;7.80;50.62
34205;BME280;20471;49.680;20.074;2023-04-26T12:41:04;96884.15;;;7.79;50.40
34205;BME280;20471;49.680;20.074;2023-04-26T12:43:31;96888.50;;;7.83;50.57
34205;BME280;20471;49.680;20.074;2023-04-26T12:45:59;96890.59;;;7.86;50.58
34205;BME280;20471;49.680;20.074;2023-04-26T12:48:26;96884.20;;;7.93;50.40
34205;BME280;20471;49.680;20.074;2023-04-26T12:50:53;96883.40;;;7.98;50.21
34205;BME280;20471;49.680;20.074;2023-04-26T12:53:20;96881.13;;;8.06;50.30
34205;BME280;20471;49.680;20.074;2023-04-26T12:55:47;96880.30;;;8.16;50.44
34205;BME280;20471;49.680;20.074;2023-04-26T12:58:14;96875.85;;;8.30;50.37
34205;BME280;20471;49.680;20.074;2023-04-26T13:00:41;96879.80;;;8.49;50.07
34205;BME280;20471;49.680;20.074;2023-04-26T13:03:08;96874.42;;;8.74;50.21
34205;BME280;20471;49.680;20.074;2023-04-26T13:05:36;96873.35;;;9.11;50.69
34205;BME280;20471;49.680;20.074;2023-04-26T13:08:02;96870.22;;;9.43;50.22
34205;BME280;20471;49.680;20.074;2023-04-26T13:10:29;96872.34;;;9.56;49.36
34205;BME280;20471;49.680;20.074;2023-04-26T13:12:57;96870.34;;;9.55;48.59
34205;BME280;20471;49.680;20.074;2023-04-26T13:15:24;96864.94;;;9.47;47.96
34205;BME280;20471;49.680;20.074;2023-04-26T13:17:52;96869.05;;;9.52;47.85
34205;BME280;20471;49.680;20.074;2023-04-26T13:20:19;96862.26;;;9.78;47.73